Portada
METAR-TAF:

METAR-TAF

Aeroports :

Saint-Dizier, França

latitud: 48-38N, longitud: 004-54E, altitud: 139 m

Observació

L'informe es va fer fa 21 minuts, a les 20:00 UTC
Vent 2 kt del Nord/Nord-Oest
Temperatura 21°C
Humitat 43%
Pressió 1016 hPa
Visibilitat 10 km o més
sense núvols per sota de 1500 mi sense presència de cumulonimbus.

METAR: LFSI 162000Z AUTO 33002KT CAVOK 21/08 Q1016

Hora: 22:21 (20:21 UTC)

Pronòstic

L'informe es va fer fa 6 hores i 21 minuts, a les 14:00 UTC
Pronòstic vàlid del 16 a les 15 UTC al 17 a les 15 UTC
Vent 10 kt del Oest/Nord-Oest
Visibilitat 10 km o més
sense núvols per sota de 1500 mi sense presència de cumulonimbus.

TAF: LFSI 161400Z 1615/1715 30010KT CAVOK

Observacions i pronòstics meteorològics de més de 4000 aeroports (METAR i TAF).

Les estacions disponibles són els punts grocs i vermells al mapa.

Posi el ratolí al punt desitjat per veure el nom de l'estació.

Feu clic per veure les observacions i els pronòstics meteorològics.

Per canviar el mapa: feu clic els botons verds amb una creu de color negre per apropar; al botó verd amb un guió per allunyar la imatge; o en les fletxes verdes per a mapes adjacents.


METAR-TAF: